LFLC/CFE METAR and TAF weather

Enter ICAO airport designator
Station Type Date Time Source
LFLC METAR 2019/06/26 06:00 UTC NOAA

LFLC 260600Z AUTO VRB01KT CAVOK 22/14 Q1020 NOSIG


Station Type Date Time Source
LFLC Decoded METAR 2019/06/26 06:00 UTC NOAA

Clermont-Ferrand, France (LFLC) 45-47N 003-10E 330M
Jun 26, 2019 - 02:00 AM EDT / 2019.06.26 0600 UTC
Wind: Variable at 1 MPH (1 KT):0
Visibility: greater than 7 mile(s):0
Temperature: 71 F (22 C)
Dew Point: 57 F (14 C)
Relative Humidity: 60%
Pressure (altimeter): 30.12 in. Hg (1020 hPa)
ob: LFLC 260600Z AUTO VRB01KT CAVOK 22/14 Q1020 NOSIG
cycle: 6

Station Type Date Time Source
LFLC TAF 2019/06/26 03:23 UTC NOAA

TAF LFLC 260200Z 2603/2703 18005KT CAVOK

Example: see airport list